sensor_id;sensor_type;location;lat;lon;timestamp;P1;durP1;ratioP1;P2;durP2;ratioP2
37303;SDS011;23188;51.188;16.374;2023-10-08T00:02:20;0.80;;;0.80;;
37303;SDS011;23188;51.188;16.374;2023-10-08T00:06:25;0.60;;;0.30;;
37303;SDS011;23188;51.188;16.374;2023-10-08T00:10:34;1.60;;;0.50;;
37303;SDS011;23188;51.188;16.374;2023-10-08T00:14:43;0.60;;;0.60;;
37303;SDS011;23188;51.188;16.374;2023-10-08T00:28:37;0.80;;;0.70;;
37303;SDS011;23188;51.188;16.374;2023-10-08T00:32:40;0.90;;;0.40;;
37303;SDS011;23188;51.188;16.374;2023-10-08T00:36:53;0.60;;;0.50;;
37303;SDS011;23188;51.188;16.374;2023-10-08T00:40:57;1.10;;;0.60;;
37303;SDS011;23188;51.188;16.374;2023-10-08T00:45:06;0.70;;;0.60;;
37303;SDS011;23188;51.188;16.374;2023-10-08T00:49:10;0.50;;;0.50;;
37303;SDS011;23188;51.188;16.374;2023-10-08T00:53:25;0.70;;;0.60;;
37303;SDS011;23188;51.188;16.374;2023-10-08T00:57:30;1.30;;;0.70;;
37303;SDS011;23188;51.188;16.374;2023-10-08T01:01:37;0.60;;;0.50;;
37303;SDS011;23188;51.188;16.374;2023-10-08T01:10:14;0.30;;;0.20;;
37303;SDS011;23188;51.188;16.374;2023-10-08T01:18:52;0.10;;;0.10;;
37303;SDS011;23188;51.188;16.374;2023-10-08T01:22:57;0.40;;;0.10;;
37303;SDS011;23188;51.188;16.374;2023-10-08T01:27:00;0.10;;;0.00;;
37303;SDS011;23188;51.188;16.374;2023-10-08T01:31:07;0.20;;;0.00;;
37303;SDS011;23188;51.188;16.374;2023-10-08T01:39:27;2.50;;;0.30;;
37303;SDS011;23188;51.188;16.374;2023-10-08T01:43:30;0.10;;;0.10;;
37303;SDS011;23188;51.188;16.374;2023-10-08T01:47:34;0.20;;;0.10;;
37303;SDS011;23188;51.188;16.374;2023-10-08T01:51:38;1.90;;;0.10;;
37303;SDS011;23188;51.188;16.374;2023-10-08T01:55:47;0.90;;;0.40;;
37303;SDS011;23188;51.188;16.374;2023-10-08T01:59:54;0.30;;;0.10;;
37303;SDS011;23188;51.188;16.374;2023-10-08T02:08:53;2.30;;;1.30;;
37303;SDS011;23188;51.188;16.374;2023-10-08T02:12:56;2.50;;;1.30;;
37303;SDS011;23188;51.188;16.374;2023-10-08T02:16:59;4.30;;;1.50;;
37303;SDS011;23188;51.188;16.374;2023-10-08T02:21:11;4.00;;;1.90;;
37303;SDS011;23188;51.188;16.374;2023-10-08T02:25:14;3.20;;;1.30;;
37303;SDS011;23188;51.188;16.374;2023-10-08T02:29:18;2.60;;;1.40;;
37303;SDS011;23188;51.188;16.374;2023-10-08T02:33:29;5.10;;;1.60;;
37303;SDS011;23188;51.188;16.374;2023-10-08T02:37:33;1.60;;;0.80;;
37303;SDS011;23188;51.188;16.374;2023-10-08T02:41:38;3.20;;;1.60;;
37303;SDS011;23188;51.188;16.374;2023-10-08T02:50:18;5.10;;;1.00;;
37303;SDS011;23188;51.188;16.374;2023-10-08T02:54:22;3.80;;;1.10;;
37303;SDS011;23188;51.188;16.374;2023-10-08T02:58:39;4.20;;;1.50;;
37303;SDS011;23188;51.188;16.374;2023-10-08T03:02:43;8.00;;;2.60;;
37303;SDS011;23188;51.188;16.374;2023-10-08T03:06:46;5.20;;;2.40;;
37303;SDS011;23188;51.188;16.374;2023-10-08T03:19:14;4.90;;;1.80;;
37303;SDS011;23188;51.188;16.374;2023-10-08T03:23:21;9.10;;;2.80;;
37303;SDS011;23188;51.188;16.374;2023-10-08T03:27:39;7.80;;;2.20;;
37303;SDS011;23188;51.188;16.374;2023-10-08T03:31:44;6.50;;;1.90;;
37303;SDS011;23188;51.188;16.374;2023-10-08T03:35:52;2.20;;;1.90;;
37303;SDS011;23188;51.188;16.374;2023-10-08T03:39:58;4.10;;;1.90;;
37303;SDS011;23188;51.188;16.374;2023-10-08T03:44:09;5.30;;;2.60;;
37303;SDS011;23188;51.188;16.374;2023-10-08T03:52:28;5.30;;;2.80;;
37303;SDS011;23188;51.188;16.374;2023-10-08T03:56:33;7.90;;;2.80;;
37303;SDS011;23188;51.188;16.374;2023-10-08T04:00:39;15.20;;;2.60;;
37303;SDS011;23188;51.188;16.374;2023-10-08T04:04:45;11.90;;;2.80;;
37303;SDS011;23188;51.188;16.374;2023-10-08T04:08:54;10.30;;;2.30;;
37303;SDS011;23188;51.188;16.374;2023-10-08T04:13:40;18.00;;;2.30;;
37303;SDS011;23188;51.188;16.374;2023-10-08T04:17:51;9.50;;;1.90;;
37303;SDS011;23188;51.188;16.374;2023-10-08T04:21:54;8.70;;;2.10;;
37303;SDS011;23188;51.188;16.374;2023-10-08T04:25:59;4.00;;;1.60;;
37303;SDS011;23188;51.188;16.374;2023-10-08T04:30:02;20.00;;;2.60;;
37303;SDS011;23188;51.188;16.374;2023-10-08T04:34:06;4.30;;;2.80;;
37303;SDS011;23188;51.188;16.374;2023-10-08T04:38:13;14.80;;;3.70;;
37303;SDS011;23188;51.188;16.374;2023-10-08T04:42:22;6.90;;;2.80;;
37303;SDS011;23188;51.188;16.374;2023-10-08T04:46:29;6.20;;;2.60;;
37303;SDS011;23188;51.188;16.374;2023-10-08T04:50:41;8.50;;;2.80;;
37303;SDS011;23188;51.188;16.374;2023-10-08T04:54:47;6.90;;;3.20;;
37303;SDS011;23188;51.188;16.374;2023-10-08T04:58:57;4.70;;;1.90;;
37303;SDS011;23188;51.188;16.374;2023-10-08T05:03:00;11.60;;;2.80;;
37303;SDS011;23188;51.188;16.374;2023-10-08T05:07:13;8.40;;;2.50;;
37303;SDS011;23188;51.188;16.374;2023-10-08T05:11:20;6.20;;;1.90;;
37303;SDS011;23188;51.188;16.374;2023-10-08T05:15:46;3.10;;;1.50;;
37303;SDS011;23188;51.188;16.374;2023-10-08T05:20:07;4.40;;;2.60;;
37303;SDS011;23188;51.188;16.374;2023-10-08T05:24:11;6.30;;;3.20;;
37303;SDS011;23188;51.188;16.374;2023-10-08T05:28:16;14.70;;;2.20;;
37303;SDS011;23188;51.188;16.374;2023-10-08T05:32:27;6.00;;;1.50;;
37303;SDS011;23188;51.188;16.374;2023-10-08T05:36:44;5.10;;;2.40;;
37303;SDS011;23188;51.188;16.374;2023-10-08T05:41:13;6.90;;;2.20;;
37303;SDS011;23188;51.188;16.374;2023-10-08T05:45:54;4.90;;;2.60;;
37303;SDS011;23188;51.188;16.374;2023-10-08T05:50:17;13.10;;;2.70;;
37303;SDS011;23188;51.188;16.374;2023-10-08T05:54:22;7.90;;;2.10;;
37303;SDS011;23188;51.188;16.374;2023-10-08T05:58:32;5.30;;;2.40;;
37303;SDS011;23188;51.188;16.374;2023-10-08T06:02:48;5.00;;;2.70;;
37303;SDS011;23188;51.188;16.374;2023-10-08T06:07:33;6.00;;;3.00;;
37303;SDS011;23188;51.188;16.374;2023-10-08T06:11:52;8.40;;;4.00;;
37303;SDS011;23188;51.188;16.374;2023-10-08T06:16:15;5.30;;;2.70;;
37303;SDS011;23188;51.188;16.374;2023-10-08T06:20:34;11.70;;;4.90;;
37303;SDS011;23188;51.188;16.374;2023-10-08T06:24:39;7.40;;;3.50;;
37303;SDS011;23188;51.188;16.374;2023-10-08T06:28:43;7.50;;;3.40;;
37303;SDS011;23188;51.188;16.374;2023-10-08T06:32:47;8.40;;;3.60;;
37303;SDS011;23188;51.188;16.374;2023-10-08T06:41:03;5.90;;;4.60;;
37303;SDS011;23188;51.188;16.374;2023-10-08T06:45:39;9.90;;;5.70;;
37303;SDS011;23188;51.188;16.374;2023-10-08T06:49:42;14.70;;;5.90;;
37303;SDS011;23188;51.188;16.374;2023-10-08T06:58:20;10.10;;;7.20;;
37303;SDS011;23188;51.188;16.374;2023-10-08T07:02:23;12.60;;;8.10;;
37303;SDS011;23188;51.188;16.374;2023-10-08T07:06:29;13.60;;;8.60;;
37303;SDS011;23188;51.188;16.374;2023-10-08T07:10:36;11.30;;;8.10;;
37303;SDS011;23188;51.188;16.374;2023-10-08T07:14:40;13.30;;;8.00;;
37303;SDS011;23188;51.188;16.374;2023-10-08T07:18:45;11.90;;;6.10;;
37303;SDS011;23188;51.188;16.374;2023-10-08T07:22:55;14.90;;;7.30;;
37303;SDS011;23188;51.188;16.374;2023-10-08T07:26:58;7.50;;;5.80;;
37303;SDS011;23188;51.188;16.374;2023-10-08T07:31:13;7.60;;;5.50;;
37303;SDS011;23188;51.188;16.374;2023-10-08T07:35:30;7.50;;;4.90;;
37303;SDS011;23188;51.188;16.374;2023-10-08T07:44:16;10.10;;;6.20;;
37303;SDS011;23188;51.188;16.374;2023-10-08T07:48:24;5.10;;;3.90;;
37303;SDS011;23188;51.188;16.374;2023-10-08T07:56:47;7.20;;;5.10;;
37303;SDS011;23188;51.188;16.374;2023-10-08T08:00:50;4.30;;;3.30;;
37303;SDS011;23188;51.188;16.374;2023-10-08T08:04:59;11.20;;;5.10;;
37303;SDS011;23188;51.188;16.374;2023-10-08T08:09:03;5.10;;;3.10;;
37303;SDS011;23188;51.188;16.374;2023-10-08T08:13:21;10.40;;;5.30;;
37303;SDS011;23188;51.188;16.374;2023-10-08T08:17:25;6.20;;;4.40;;
37303;SDS011;23188;51.188;16.374;2023-10-08T08:21:30;7.20;;;5.00;;
37303;SDS011;23188;51.188;16.374;2023-10-08T08:25:40;6.00;;;3.50;;
37303;SDS011;23188;51.188;16.374;2023-10-08T08:30:07;8.10;;;4.10;;
37303;SDS011;23188;51.188;16.374;2023-10-08T08:34:20;7.20;;;3.50;;
37303;SDS011;23188;51.188;16.374;2023-10-08T08:38:24;4.80;;;3.40;;
37303;SDS011;23188;51.188;16.374;2023-10-08T08:42:29;4.70;;;2.10;;
37303;SDS011;23188;51.188;16.374;2023-10-08T08:46:38;3.50;;;2.00;;
37303;SDS011;23188;51.188;16.374;2023-10-08T08:50:43;2.90;;;1.20;;
37303;SDS011;23188;51.188;16.374;2023-10-08T08:54:49;2.40;;;2.00;;
37303;SDS011;23188;51.188;16.374;2023-10-08T08:58:54;3.30;;;2.10;;
37303;SDS011;23188;51.188;16.374;2023-10-08T09:07:58;3.30;;;1.50;;
37303;SDS011;23188;51.188;16.374;2023-10-08T09:12:09;2.20;;;1.40;;
37303;SDS011;23188;51.188;16.374;2023-10-08T09:16:14;4.70;;;1.70;;
37303;SDS011;23188;51.188;16.374;2023-10-08T09:20:19;1.20;;;1.00;;
37303;SDS011;23188;51.188;16.374;2023-10-08T09:28:28;1.70;;;1.00;;
37303;SDS011;23188;51.188;16.374;2023-10-08T09:32:38;1.10;;;0.70;;
37303;SDS011;23188;51.188;16.374;2023-10-08T09:36:43;3.10;;;1.30;;
37303;SDS011;23188;51.188;16.374;2023-10-08T09:40:46;1.20;;;1.00;;
37303;SDS011;23188;51.188;16.374;2023-10-08T09:44:49;4.30;;;1.10;;
37303;SDS011;23188;51.188;16.374;2023-10-08T09:48:53;3.60;;;1.30;;
37303;SDS011;23188;51.188;16.374;2023-10-08T09:53:11;3.10;;;1.40;;
37303;SDS011;23188;51.188;16.374;2023-10-08T09:57:22;1.80;;;0.60;;
37303;SDS011;23188;51.188;16.374;2023-10-08T10:05:36;0.90;;;0.50;;
37303;SDS011;23188;51.188;16.374;2023-10-08T10:09:42;0.90;;;0.50;;
37303;SDS011;23188;51.188;16.374;2023-10-08T10:13:50;2.20;;;1.60;;
37303;SDS011;23188;51.188;16.374;2023-10-08T10:17:58;1.60;;;1.10;;
37303;SDS011;23188;51.188;16.374;2023-10-08T10:22:14;3.30;;;1.10;;
37303;SDS011;23188;51.188;16.374;2023-10-08T10:26:33;2.20;;;0.80;;
37303;SDS011;23188;51.188;16.374;2023-10-08T10:30:39;2.90;;;0.90;;
37303;SDS011;23188;51.188;16.374;2023-10-08T10:34:42;9.20;;;0.80;;
37303;SDS011;23188;51.188;16.374;2023-10-08T10:38:47;1.20;;;0.60;;
37303;SDS011;23188;51.188;16.374;2023-10-08T10:42:52;0.90;;;0.70;;
37303;SDS011;23188;51.188;16.374;2023-10-08T10:46:59;1.90;;;0.50;;
37303;SDS011;23188;51.188;16.374;2023-10-08T10:51:21;1.60;;;0.60;;
37303;SDS011;23188;51.188;16.374;2023-10-08T10:55:25;1.60;;;0.60;;
37303;SDS011;23188;51.188;16.374;2023-10-08T10:59:40;0.80;;;0.70;;
37303;SDS011;23188;51.188;16.374;2023-10-08T11:03:45;0.60;;;0.40;;
37303;SDS011;23188;51.188;16.374;2023-10-08T11:07:58;1.10;;;0.60;;
37303;SDS011;23188;51.188;16.374;2023-10-08T11:12:10;0.70;;;0.60;;
37303;SDS011;23188;51.188;16.374;2023-10-08T11:16:17;3.20;;;0.40;;
37303;SDS011;23188;51.188;16.374;2023-10-08T11:20:23;1.80;;;0.40;;
37303;SDS011;23188;51.188;16.374;2023-10-08T11:24:30;1.20;;;0.60;;
37303;SDS011;23188;51.188;16.374;2023-10-08T11:28:37;0.50;;;0.50;;
37303;SDS011;23188;51.188;16.374;2023-10-08T11:32:45;3.50;;;0.40;;
37303;SDS011;23188;51.188;16.374;2023-10-08T11:36:54;0.60;;;0.50;;
37303;SDS011;23188;51.188;16.374;2023-10-08T11:41:09;1.50;;;0.60;;
37303;SDS011;23188;51.188;16.374;2023-10-08T11:45:16;2.00;;;0.70;;
37303;SDS011;23188;51.188;16.374;2023-10-08T11:49:26;0.50;;;0.30;;
37303;SDS011;23188;51.188;16.374;2023-10-08T11:53:29;0.50;;;0.50;;
37303;SDS011;23188;51.188;16.374;2023-10-08T11:57:34;1.00;;;0.90;;
37303;SDS011;23188;51.188;16.374;2023-10-08T12:01:38;0.70;;;0.40;;
37303;SDS011;23188;51.188;16.374;2023-10-08T12:05:45;1.00;;;0.70;;
37303;SDS011;23188;51.188;16.374;2023-10-08T12:09:54;3.20;;;1.50;;
37303;SDS011;23188;51.188;16.374;2023-10-08T12:13:57;0.60;;;0.50;;
